sensor_id;sensor_type;location;lat;lon;timestamp;temperature;humidity
5276;DHT22;2661;50.786;12.728;2023-04-24T00:01:33;11.10;1.00
5276;DHT22;2661;50.786;12.728;2023-04-24T00:04:00;11.10;1.00
5276;DHT22;2661;50.786;12.728;2023-04-24T00:06:28;11.10;1.00
5276;DHT22;2661;50.786;12.728;2023-04-24T00:09:00;11.10;1.00
5276;DHT22;2661;50.786;12.728;2023-04-24T00:11:27;11.20;1.00
5276;DHT22;2661;50.786;12.728;2023-04-24T00:13:54;11.30;99.90
5276;DHT22;2661;50.786;12.728;2023-04-24T00:16:20;11.30;99.90
5276;DHT22;2661;50.786;12.728;2023-04-24T00:18:47;11.30;99.90
5276;DHT22;2661;50.786;12.728;2023-04-24T00:21:14;11.20;99.90
5276;DHT22;2661;50.786;12.728;2023-04-24T00:23:42;11.10;99.90
5276;DHT22;2661;50.786;12.728;2023-04-24T00:26:09;11.20;99.90
5276;DHT22;2661;50.786;12.728;2023-04-24T00:28:35;11.20;99.90
5276;DHT22;2661;50.786;12.728;2023-04-24T00:31:02;11.20;99.90
5276;DHT22;2661;50.786;12.728;2023-04-24T00:33:29;11.20;99.90
5276;DHT22;2661;50.786;12.728;2023-04-24T00:35:55;11.10;99.90
5276;DHT22;2661;50.786;12.728;2023-04-24T00:38:22;11.10;1.00
5276;DHT22;2661;50.786;12.728;2023-04-24T00:40:48;11.00;1.00
5276;DHT22;2661;50.786;12.728;2023-04-24T00:43:16;11.00;1.00
5276;DHT22;2661;50.786;12.728;2023-04-24T00:45:43;11.00;1.00
5276;DHT22;2661;50.786;12.728;2023-04-24T00:48:09;10.90;1.00
5276;DHT22;2661;50.786;12.728;2023-04-24T00:50:37;10.90;1.00
5276;DHT22;2661;50.786;12.728;2023-04-24T00:53:04;10.90;1.00
5276;DHT22;2661;50.786;12.728;2023-04-24T00:55:31;10.90;1.00
5276;DHT22;2661;50.786;12.728;2023-04-24T00:57:58;11.00;1.00
5276;DHT22;2661;50.786;12.728;2023-04-24T01:00:24;10.90;1.00
5276;DHT22;2661;50.786;12.728;2023-04-24T01:02:51;10.80;1.00
5276;DHT22;2661;50.786;12.728;2023-04-24T01:05:19;10.80;1.00
5276;DHT22;2661;50.786;12.728;2023-04-24T01:07:45;10.70;1.00
5276;DHT22;2661;50.786;12.728;2023-04-24T01:10:13;10.70;1.00
5276;DHT22;2661;50.786;12.728;2023-04-24T01:12:40;10.70;1.00
5276;DHT22;2661;50.786;12.728;2023-04-24T01:15:07;10.70;1.00
5276;DHT22;2661;50.786;12.728;2023-04-24T01:17:34;10.60;1.00
5276;DHT22;2661;50.786;12.728;2023-04-24T01:20:01;10.70;1.00
5276;DHT22;2661;50.786;12.728;2023-04-24T01:22:30;10.60;1.00
5276;DHT22;2661;50.786;12.728;2023-04-24T01:24:57;10.60;1.00
5276;DHT22;2661;50.786;12.728;2023-04-24T01:27:23;10.70;1.00
5276;DHT22;2661;50.786;12.728;2023-04-24T01:29:50;10.70;1.00
5276;DHT22;2661;50.786;12.728;2023-04-24T01:32:18;10.70;1.00
5276;DHT22;2661;50.786;12.728;2023-04-24T01:34:45;10.70;1.00
5276;DHT22;2661;50.786;12.728;2023-04-24T01:37:12;10.70;1.00
5276;DHT22;2661;50.786;12.728;2023-04-24T01:39:39;10.70;1.00
5276;DHT22;2661;50.786;12.728;2023-04-24T01:42:06;10.80;1.00
5276;DHT22;2661;50.786;12.728;2023-04-24T01:44:33;10.80;1.00
5276;DHT22;2661;50.786;12.728;2023-04-24T01:47:00;10.90;1.00
5276;DHT22;2661;50.786;12.728;2023-04-24T01:49:27;10.90;99.90
5276;DHT22;2661;50.786;12.728;2023-04-24T01:51:53;11.00;99.90
5276;DHT22;2661;50.786;12.728;2023-04-24T01:54:20;11.00;99.90
5276;DHT22;2661;50.786;12.728;2023-04-24T01:56:47;10.90;99.90
5276;DHT22;2661;50.786;12.728;2023-04-24T01:59:13;11.00;99.90
5276;DHT22;2661;50.786;12.728;2023-04-24T02:01:41;11.00;99.90
5276;DHT22;2661;50.786;12.728;2023-04-24T02:04:08;11.10;99.90
5276;DHT22;2661;50.786;12.728;2023-04-24T02:06:35;11.00;99.90
5276;DHT22;2661;50.786;12.728;2023-04-24T02:09:02;11.00;99.90
5276;DHT22;2661;50.786;12.728;2023-04-24T02:11:29;10.90;99.90
5276;DHT22;2661;50.786;12.728;2023-04-24T02:13:56;10.90;99.90
5276;DHT22;2661;50.786;12.728;2023-04-24T02:16:22;10.70;99.90
5276;DHT22;2661;50.786;12.728;2023-04-24T02:18:49;10.70;99.90
5276;DHT22;2661;50.786;12.728;2023-04-24T02:21:15;10.70;99.90
5276;DHT22;2661;50.786;12.728;2023-04-24T02:23:42;10.70;99.90
5276;DHT22;2661;50.786;12.728;2023-04-24T02:26:08;10.70;99.90
5276;DHT22;2661;50.786;12.728;2023-04-24T02:28:35;10.60;99.90
5276;DHT22;2661;50.786;12.728;2023-04-24T02:31:02;10.70;99.90
5276;DHT22;2661;50.786;12.728;2023-04-24T02:33:28;10.70;99.90
5276;DHT22;2661;50.786;12.728;2023-04-24T02:35:55;10.70;99.90
5276;DHT22;2661;50.786;12.728;2023-04-24T02:38:22;10.60;99.90
5276;DHT22;2661;50.786;12.728;2023-04-24T02:40:48;10.60;99.90
5276;DHT22;2661;50.786;12.728;2023-04-24T02:43:15;10.60;99.90
5276;DHT22;2661;50.786;12.728;2023-04-24T02:45:41;10.50;99.90
5276;DHT22;2661;50.786;12.728;2023-04-24T02:48:08;10.50;99.90
5276;DHT22;2661;50.786;12.728;2023-04-24T02:50:35;10.50;99.90
5276;DHT22;2661;50.786;12.728;2023-04-24T02:53:01;10.40;99.90
5276;DHT22;2661;50.786;12.728;2023-04-24T02:55:28;10.40;99.90
5276;DHT22;2661;50.786;12.728;2023-04-24T02:57:55;10.30;99.90
5276;DHT22;2661;50.786;12.728;2023-04-24T03:00:21;10.30;99.90
5276;DHT22;2661;50.786;12.728;2023-04-24T03:02:48;10.20;99.90
5276;DHT22;2661;50.786;12.728;2023-04-24T03:05:16;10.20;99.90
5276;DHT22;2661;50.786;12.728;2023-04-24T03:07:42;10.10;99.90
5276;DHT22;2661;50.786;12.728;2023-04-24T03:10:09;10.00;1.00
5276;DHT22;2661;50.786;12.728;2023-04-24T03:12:35;10.00;1.00
5276;DHT22;2661;50.786;12.728;2023-04-24T03:15:02;9.90;1.00
5276;DHT22;2661;50.786;12.728;2023-04-24T03:17:29;9.90;1.00
5276;DHT22;2661;50.786;12.728;2023-04-24T03:19:55;9.80;1.00
5276;DHT22;2661;50.786;12.728;2023-04-24T03:22:22;9.90;1.00
5276;DHT22;2661;50.786;12.728;2023-04-24T03:24:48;9.80;1.00
5276;DHT22;2661;50.786;12.728;2023-04-24T03:27:15;9.90;1.00
5276;DHT22;2661;50.786;12.728;2023-04-24T03:29:42;9.90;1.00
5276;DHT22;2661;50.786;12.728;2023-04-24T03:32:08;9.80;1.00
5276;DHT22;2661;50.786;12.728;2023-04-24T03:34:35;9.90;1.00
5276;DHT22;2661;50.786;12.728;2023-04-24T03:37:01;9.80;1.00
5276;DHT22;2661;50.786;12.728;2023-04-24T03:39:28;9.90;1.00
5276;DHT22;2661;50.786;12.728;2023-04-24T03:41:55;9.90;1.00
5276;DHT22;2661;50.786;12.728;2023-04-24T03:44:22;9.90;1.00
5276;DHT22;2661;50.786;12.728;2023-04-24T03:46:48;9.90;1.00
5276;DHT22;2661;50.786;12.728;2023-04-24T03:49:15;9.90;1.00
5276;DHT22;2661;50.786;12.728;2023-04-24T03:51:41;9.90;1.00
5276;DHT22;2661;50.786;12.728;2023-04-24T03:54:08;9.80;1.00
5276;DHT22;2661;50.786;12.728;2023-04-24T03:56:34;9.90;1.00
5276;DHT22;2661;50.786;12.728;2023-04-24T03:59:01;9.80;1.00
5276;DHT22;2661;50.786;12.728;2023-04-24T04:01:28;9.80;1.00
5276;DHT22;2661;50.786;12.728;2023-04-24T04:03:55;9.80;1.00
5276;DHT22;2661;50.786;12.728;2023-04-24T04:06:22;9.80;1.00
5276;DHT22;2661;50.786;12.728;2023-04-24T04:08:48;9.70;1.00
5276;DHT22;2661;50.786;12.728;2023-04-24T04:11:15;9.70;1.00
5276;DHT22;2661;50.786;12.728;2023-04-24T04:13:42;9.70;1.00
5276;DHT22;2661;50.786;12.728;2023-04-24T04:16:11;9.80;1.00
5276;DHT22;2661;50.786;12.728;2023-04-24T04:18:39;9.70;1.00
5276;DHT22;2661;50.786;12.728;2023-04-24T04:21:05;9.80;1.00
5276;DHT22;2661;50.786;12.728;2023-04-24T04:23:32;9.70;1.00
5276;DHT22;2661;50.786;12.728;2023-04-24T04:25:58;9.80;1.00
5276;DHT22;2661;50.786;12.728;2023-04-24T04:28:25;9.80;1.00
5276;DHT22;2661;50.786;12.728;2023-04-24T04:30:52;9.80;1.00
5276;DHT22;2661;50.786;12.728;2023-04-24T04:33:20;9.80;1.00
5276;DHT22;2661;50.786;12.728;2023-04-24T04:35:47;9.90;1.00
5276;DHT22;2661;50.786;12.728;2023-04-24T04:38:15;9.90;1.00
5276;DHT22;2661;50.786;12.728;2023-04-24T04:40:43;9.90;1.00
5276;DHT22;2661;50.786;12.728;2023-04-24T04:43:09;10.00;1.00
5276;DHT22;2661;50.786;12.728;2023-04-24T04:45:37;10.00;1.00
5276;DHT22;2661;50.786;12.728;2023-04-24T04:48:05;10.00;1.00
5276;DHT22;2661;50.786;12.728;2023-04-24T04:50:33;10.10;1.00
5276;DHT22;2661;50.786;12.728;2023-04-24T04:53:00;10.10;1.00
5276;DHT22;2661;50.786;12.728;2023-04-24T04:55:26;10.20;99.90
5276;DHT22;2661;50.786;12.728;2023-04-24T04:57:53;10.30;99.90
5276;DHT22;2661;50.786;12.728;2023-04-24T05:00:20;10.40;99.90
5276;DHT22;2661;50.786;12.728;2023-04-24T05:02:47;10.50;99.90
5276;DHT22;2661;50.786;12.728;2023-04-24T05:05:15;10.60;99.90
5276;DHT22;2661;50.786;12.728;2023-04-24T05:07:43;10.70;99.90
5276;DHT22;2661;50.786;12.728;2023-04-24T05:10:10;10.70;99.90
5276;DHT22;2661;50.786;12.728;2023-04-24T05:12:37;10.70;99.90
5276;DHT22;2661;50.786;12.728;2023-04-24T05:15:03;10.70;99.90
5276;DHT22;2661;50.786;12.728;2023-04-24T05:17:30;10.80;99.90
5276;DHT22;2661;50.786;12.728;2023-04-24T05:19:56;10.80;99.90
5276;DHT22;2661;50.786;12.728;2023-04-24T05:22:23;10.90;99.90
5276;DHT22;2661;50.786;12.728;2023-04-24T05:24:50;10.90;99.90
5276;DHT22;2661;50.786;12.728;2023-04-24T05:27:16;11.00;99.90
5276;DHT22;2661;50.786;12.728;2023-04-24T05:29:43;11.00;99.90
5276;DHT22;2661;50.786;12.728;2023-04-24T05:32:10;10.90;99.90
5276;DHT22;2661;50.786;12.728;2023-04-24T05:34:37;11.00;99.90
5276;DHT22;2661;50.786;12.728;2023-04-24T05:37:04;11.00;99.90
5276;DHT22;2661;50.786;12.728;2023-04-24T05:39:34;11.10;99.90
5276;DHT22;2661;50.786;12.728;2023-04-24T05:42:01;11.20;99.90
5276;DHT22;2661;50.786;12.728;2023-04-24T05:44:30;11.20;99.90
5276;DHT22;2661;50.786;12.728;2023-04-24T05:46:57;11.30;99.90
5276;DHT22;2661;50.786;12.728;2023-04-24T05:49:23;11.50;99.90
5276;DHT22;2661;50.786;12.728;2023-04-24T05:51:50;11.60;99.90
5276;DHT22;2661;50.786;12.728;2023-04-24T05:54:16;11.70;99.90
5276;DHT22;2661;50.786;12.728;2023-04-24T05:56:43;11.70;99.90
5276;DHT22;2661;50.786;12.728;2023-04-24T05:59:09;11.70;99.90
5276;DHT22;2661;50.786;12.728;2023-04-24T06:01:37;11.70;99.90
5276;DHT22;2661;50.786;12.728;2023-04-24T06:04:04;11.90;99.90
5276;DHT22;2661;50.786;12.728;2023-04-24T06:06:31;11.90;99.90
5276;DHT22;2661;50.786;12.728;2023-04-24T06:08:58;11.90;99.90
5276;DHT22;2661;50.786;12.728;2023-04-24T06:11:25;11.80;99.90
5276;DHT22;2661;50.786;12.728;2023-04-24T06:13:52;11.80;99.90
5276;DHT22;2661;50.786;12.728;2023-04-24T06:16:18;11.90;99.90
5276;DHT22;2661;50.786;12.728;2023-04-24T06:18:45;11.80;99.90
5276;DHT22;2661;50.786;12.728;2023-04-24T06:21:15;11.90;99.90
5276;DHT22;2661;50.786;12.728;2023-04-24T06:23:42;11.80;99.90
5276;DHT22;2661;50.786;12.728;2023-04-24T06:26:09;11.80;99.90
5276;DHT22;2661;50.786;12.728;2023-04-24T06:28:35;11.90;99.90
5276;DHT22;2661;50.786;12.728;2023-04-24T06:31:02;11.80;99.90
5276;DHT22;2661;50.786;12.728;2023-04-24T06:33:28;11.80;99.90
5276;DHT22;2661;50.786;12.728;2023-04-24T06:35:55;11.90;99.90
5276;DHT22;2661;50.786;12.728;2023-04-24T06:38:22;11.90;99.90
5276;DHT22;2661;50.786;12.728;2023-04-24T06:40:48;11.90;99.90
5276;DHT22;2661;50.786;12.728;2023-04-24T06:43:15;12.00;99.90
5276;DHT22;2661;50.786;12.728;2023-04-24T06:45:42;12.10;99.90
5276;DHT22;2661;50.786;12.728;2023-04-24T06:48:10;12.10;99.90
5276;DHT22;2661;50.786;12.728;2023-04-24T06:50:36;12.20;99.90
5276;DHT22;2661;50.786;12.728;2023-04-24T06:53:03;12.20;99.90
5276;DHT22;2661;50.786;12.728;2023-04-24T06:55:30;12.20;99.90
5276;DHT22;2661;50.786;12.728;2023-04-24T06:57:56;12.30;99.90
5276;DHT22;2661;50.786;12.728;2023-04-24T07:00:23;12.30;99.90
5276;DHT22;2661;50.786;12.728;2023-04-24T07:02:50;12.20;99.90
5276;DHT22;2661;50.786;12.728;2023-04-24T07:05:17;12.30;99.90
5276;DHT22;2661;50.786;12.728;2023-04-24T07:07:46;12.20;99.90
5276;DHT22;2661;50.786;12.728;2023-04-24T07:10:13;12.20;99.90
5276;DHT22;2661;50.786;12.728;2023-04-24T07:12:40;12.20;99.90
5276;DHT22;2661;50.786;12.728;2023-04-24T07:15:07;12.30;99.90
5276;DHT22;2661;50.786;12.728;2023-04-24T07:17:34;12.30;99.90
5276;DHT22;2661;50.786;12.728;2023-04-24T07:20:01;12.30;99.90
5276;DHT22;2661;50.786;12.728;2023-04-24T07:22:28;12.30;99.90
5276;DHT22;2661;50.786;12.728;2023-04-24T07:24:54;12.30;99.90
5276;DHT22;2661;50.786;12.728;2023-04-24T07:27:21;12.30;99.90
5276;DHT22;2661;50.786;12.728;2023-04-24T07:29:47;12.30;99.90
5276;DHT22;2661;50.786;12.728;2023-04-24T07:32:14;12.40;99.90
5276;DHT22;2661;50.786;12.728;2023-04-24T07:34:40;12.40;99.90
5276;DHT22;2661;50.786;12.728;2023-04-24T07:37:07;12.50;99.90
5276;DHT22;2661;50.786;12.728;2023-04-24T07:39:34;12.60;99.90
5276;DHT22;2661;50.786;12.728;2023-04-24T07:42:00;12.60;99.90
5276;DHT22;2661;50.786;12.728;2023-04-24T07:44:28;12.80;99.90
5276;DHT22;2661;50.786;12.728;2023-04-24T07:46:55;12.90;99.90
5276;DHT22;2661;50.786;12.728;2023-04-24T07:49:22;13.10;99.90
5276;DHT22;2661;50.786;12.728;2023-04-24T07:51:49;13.20;99.90
5276;DHT22;2661;50.786;12.728;2023-04-24T07:54:16;13.20;99.90
5276;DHT22;2661;50.786;12.728;2023-04-24T07:56:43;13.30;99.90
5276;DHT22;2661;50.786;12.728;2023-04-24T07:59:10;13.40;99.90
5276;DHT22;2661;50.786;12.728;2023-04-24T08:01:37;13.50;99.90
5276;DHT22;2661;50.786;12.728;2023-04-24T08:04:04;13.50;99.90
5276;DHT22;2661;50.786;12.728;2023-04-24T08:06:31;13.60;99.90
5276;DHT22;2661;50.786;12.728;2023-04-24T08:08:58;13.60;99.90
5276;DHT22;2661;50.786;12.728;2023-04-24T08:11:25;13.70;99.90
5276;DHT22;2661;50.786;12.728;2023-04-24T08:13:52;13.80;99.90
5276;DHT22;2661;50.786;12.728;2023-04-24T08:16:19;13.70;99.90
5276;DHT22;2661;50.786;12.728;2023-04-24T08:18:45;13.70;99.90
5276;DHT22;2661;50.786;12.728;2023-04-24T08:21:12;13.80;99.90
5276;DHT22;2661;50.786;12.728;2023-04-24T08:23:43;13.80;99.90
5276;DHT22;2661;50.786;12.728;2023-04-24T08:26:10;13.90;99.90
5276;DHT22;2661;50.786;12.728;2023-04-24T08:28:37;13.90;99.90
5276;DHT22;2661;50.786;12.728;2023-04-24T08:31:04;13.90;99.90
5276;DHT22;2661;50.786;12.728;2023-04-24T08:33:31;14.00;99.90
5276;DHT22;2661;50.786;12.728;2023-04-24T08:36:04;14.00;99.90
5276;DHT22;2661;50.786;12.728;2023-04-24T08:38:31;14.00;99.90
5276;DHT22;2661;50.786;12.728;2023-04-24T08:40:58;14.00;99.90
5276;DHT22;2661;50.786;12.728;2023-04-24T08:43:25;13.80;99.90
5276;DHT22;2661;50.786;12.728;2023-04-24T08:45:52;13.70;99.90
5276;DHT22;2661;50.786;12.728;2023-04-24T08:48:22;13.60;99.90
5276;DHT22;2661;50.786;12.728;2023-04-24T08:50:57;13.40;99.90
5276;DHT22;2661;50.786;12.728;2023-04-24T08:53:24;13.40;99.90
5276;DHT22;2661;50.786;12.728;2023-04-24T08:55:51;13.40;99.90
5276;DHT22;2661;50.786;12.728;2023-04-24T08:58:18;13.20;99.90
5276;DHT22;2661;50.786;12.728;2023-04-24T09:00:45;13.30;99.90
5276;DHT22;2661;50.786;12.728;2023-04-24T09:03:13;13.20;99.90
5276;DHT22;2661;50.786;12.728;2023-04-24T09:05:42;13.30;99.90
5276;DHT22;2661;50.786;12.728;2023-04-24T09:08:12;13.50;99.90
5276;DHT22;2661;50.786;12.728;2023-04-24T09:10:40;13.40;99.90
5276;DHT22;2661;50.786;12.728;2023-04-24T09:13:07;13.40;99.90
5276;DHT22;2661;50.786;12.728;2023-04-24T09:15:39;13.30;99.90
5276;DHT22;2661;50.786;12.728;2023-04-24T09:18:06;13.30;99.90
5276;DHT22;2661;50.786;12.728;2023-04-24T09:20:32;13.30;99.90
5276;DHT22;2661;50.786;12.728;2023-04-24T09:22:59;13.30;99.90
5276;DHT22;2661;50.786;12.728;2023-04-24T09:25:33;13.40;99.90
5276;DHT22;2661;50.786;12.728;2023-04-24T09:28:00;13.50;99.90
5276;DHT22;2661;50.786;12.728;2023-04-24T09:30:28;13.70;99.90
5276;DHT22;2661;50.786;12.728;2023-04-24T09:33:13;13.80;99.90
5276;DHT22;2661;50.786;12.728;2023-04-24T09:35:50;13.80;99.90
5276;DHT22;2661;50.786;12.728;2023-04-24T09:38:17;13.90;99.90
5276;DHT22;2661;50.786;12.728;2023-04-24T09:40:43;13.90;99.90
5276;DHT22;2661;50.786;12.728;2023-04-24T09:43:11;14.10;99.90
5276;DHT22;2661;50.786;12.728;2023-04-24T09:45:38;14.10;99.90
5276;DHT22;2661;50.786;12.728;2023-04-24T09:48:08;14.30;99.90
5276;DHT22;2661;50.786;12.728;2023-04-24T09:50:35;14.30;99.90
5276;DHT22;2661;50.786;12.728;2023-04-24T09:53:02;14.30;99.90
5276;DHT22;2661;50.786;12.728;2023-04-24T09:55:31;14.40;99.90
5276;DHT22;2661;50.786;12.728;2023-04-24T09:57:58;14.50;99.90
5276;DHT22;2661;50.786;12.728;2023-04-24T10:00:30;14.30;99.90
5276;DHT22;2661;50.786;12.728;2023-04-24T10:05:25;14.30;99.90
5276;DHT22;2661;50.786;12.728;2023-04-24T10:07:55;14.40;99.90
5276;DHT22;2661;50.786;12.728;2023-04-24T10:10:22;14.60;99.90
5276;DHT22;2661;50.786;12.728;2023-04-24T10:12:49;14.80;99.90
5276;DHT22;2661;50.786;12.728;2023-04-24T10:15:17;14.90;99.90
5276;DHT22;2661;50.786;12.728;2023-04-24T10:17:50;14.80;99.90
5276;DHT22;2661;50.786;12.728;2023-04-24T10:20:20;14.80;99.90
5276;DHT22;2661;50.786;12.728;2023-04-24T10:22:48;14.70;99.90
5276;DHT22;2661;50.786;12.728;2023-04-24T10:25:16;14.70;99.90
5276;DHT22;2661;50.786;12.728;2023-04-24T10:27:44;14.70;99.90
5276;DHT22;2661;50.786;12.728;2023-04-24T10:30:12;14.80;99.90
5276;DHT22;2661;50.786;12.728;2023-04-24T10:32:39;14.80;99.90
5276;DHT22;2661;50.786;12.728;2023-04-24T10:35:06;15.00;99.90
5276;DHT22;2661;50.786;12.728;2023-04-24T10:37:46;15.10;99.90
5276;DHT22;2661;50.786;12.728;2023-04-24T10:40:18;15.10;99.90
5276;DHT22;2661;50.786;12.728;2023-04-24T10:42:49;15.00;99.90
5276;DHT22;2661;50.786;12.728;2023-04-24T10:45:19;15.10;99.90
5276;DHT22;2661;50.786;12.728;2023-04-24T10:48:06;15.30;99.90
5276;DHT22;2661;50.786;12.728;2023-04-24T10:50:47;15.20;99.90
5276;DHT22;2661;50.786;12.728;2023-04-24T10:53:23;15.20;99.90
5276;DHT22;2661;50.786;12.728;2023-04-24T10:55:51;15.30;99.90
5276;DHT22;2661;50.786;12.728;2023-04-24T10:58:22;15.40;99.90
5276;DHT22;2661;50.786;12.728;2023-04-24T11:00:58;15.50;99.90
5276;DHT22;2661;50.786;12.728;2023-04-24T11:03:26;15.60;99.90
5276;DHT22;2661;50.786;12.728;2023-04-24T11:06:07;15.60;99.90
5276;DHT22;2661;50.786;12.728;2023-04-24T11:08:38;15.40;99.90
5276;DHT22;2661;50.786;12.728;2023-04-24T11:11:09;15.30;99.90
5276;DHT22;2661;50.786;12.728;2023-04-24T11:16:25;15.40;99.90
5276;DHT22;2661;50.786;12.728;2023-04-24T11:18:52;15.40;99.90
5276;DHT22;2661;50.786;12.728;2023-04-24T11:21:27;15.20;99.90
5276;DHT22;2661;50.786;12.728;2023-04-24T11:23:58;15.10;99.90
5276;DHT22;2661;50.786;12.728;2023-04-24T11:26:24;15.10;99.90
5276;DHT22;2661;50.786;12.728;2023-04-24T11:29:05;15.20;99.90
5276;DHT22;2661;50.786;12.728;2023-04-24T11:31:37;15.20;99.90
5276;DHT22;2661;50.786;12.728;2023-04-24T11:34:11;15.40;99.90
5276;DHT22;2661;50.786;12.728;2023-04-24T11:36:42;15.40;99.90
5276;DHT22;2661;50.786;12.728;2023-04-24T11:39:09;15.40;99.90
5276;DHT22;2661;50.786;12.728;2023-04-24T11:41:37;15.20;99.90
5276;DHT22;2661;50.786;12.728;2023-04-24T11:44:05;15.10;99.90
5276;DHT22;2661;50.786;12.728;2023-04-24T11:46:32;15.20;99.90
5276;DHT22;2661;50.786;12.728;2023-04-24T11:48:59;15.20;99.90
5276;DHT22;2661;50.786;12.728;2023-04-24T11:51:27;15.30;99.90
5276;DHT22;2661;50.786;12.728;2023-04-24T11:54:02;15.30;99.90
5276;DHT22;2661;50.786;12.728;2023-04-24T11:56:33;15.40;99.90
5276;DHT22;2661;50.786;12.728;2023-04-24T11:59:00;15.40;99.90
5276;DHT22;2661;50.786;12.728;2023-04-24T12:01:31;15.40;99.90
5276;DHT22;2661;50.786;12.728;2023-04-24T12:04:08;15.40;99.90
5276;DHT22;2661;50.786;12.728;2023-04-24T12:06:35;15.40;99.90
5276;DHT22;2661;50.786;12.728;2023-04-24T12:09:26;15.40;99.90
5276;DHT22;2661;50.786;12.728;2023-04-24T12:12:17;15.10;99.90
5276;DHT22;2661;50.786;12.728;2023-04-24T12:15:08;15.20;99.90
5276;DHT22;2661;50.786;12.728;2023-04-24T12:17:40;15.10;99.90
5276;DHT22;2661;50.786;12.728;2023-04-24T12:20:08;14.90;99.90
5276;DHT22;2661;50.786;12.728;2023-04-24T12:22:51;14.70;99.90
5276;DHT22;2661;50.786;12.728;2023-04-24T12:25:21;14.70;99.90
5276;DHT22;2661;50.786;12.728;2023-04-24T12:28:12;14.80;99.90
5276;DHT22;2661;50.786;12.728;2023-04-24T12:31:03;14.90;99.90
5276;DHT22;2661;50.786;12.728;2023-04-24T12:33:33;14.80;99.90
5276;DHT22;2661;50.786;12.728;2023-04-24T12:36:01;14.80;99.90
5276;DHT22;2661;50.786;12.728;2023-04-24T12:38:29;14.70;99.90
5276;DHT22;2661;50.786;12.728;2023-04-24T12:41:21;14.80;99.90
5276;DHT22;2661;50.786;12.728;2023-04-24T12:44:11;15.00;99.90
5276;DHT22;2661;50.786;12.728;2023-04-24T12:47:03;15.00;99.90
5276;DHT22;2661;50.786;12.728;2023-04-24T12:49:54;15.00;99.90
5276;DHT22;2661;50.786;12.728;2023-04-24T12:52:22;15.10;99.90
5276;DHT22;2661;50.786;12.728;2023-04-24T12:54:50;15.20;99.90
5276;DHT22;2661;50.786;12.728;2023-04-24T12:57:17;15.30;99.90
5276;DHT22;2661;50.786;12.728;2023-04-24T12:59:44;15.30;99.90
5276;DHT22;2661;50.786;12.728;2023-04-24T13:02:11;15.20;99.90
5276;DHT22;2661;50.786;12.728;2023-04-24T13:04:46;15.20;99.90
5276;DHT22;2661;50.786;12.728;2023-04-24T13:07:13;15.10;99.90
5276;DHT22;2661;50.786;12.728;2023-04-24T13:09:41;15.10;99.90
5276;DHT22;2661;50.786;12.728;2023-04-24T13:12:09;15.20;99.90
5276;DHT22;2661;50.786;12.728;2023-04-24T13:14:35;15.40;99.90
5276;DHT22;2661;50.786;12.728;2023-04-24T13:17:03;15.50;99.90
5276;DHT22;2661;50.786;12.728;2023-04-24T13:19:30;15.60;99.90
5276;DHT22;2661;50.786;12.728;2023-04-24T13:22:02;15.50;99.90
5276;DHT22;2661;50.786;12.728;2023-04-24T13:24:29;15.50;99.90
5276;DHT22;2661;50.786;12.728;2023-04-24T13:26:55;15.40;99.90
5276;DHT22;2661;50.786;12.728;2023-04-24T13:29:23;15.40;99.90
5276;DHT22;2661;50.786;12.728;2023-04-24T13:31:50;15.40;99.90
5276;DHT22;2661;50.786;12.728;2023-04-24T13:34:19;15.40;99.90
5276;DHT22;2661;50.786;12.728;2023-04-24T13:36:46;15.50;99.90
5276;DHT22;2661;50.786;12.728;2023-04-24T13:39:13;15.60;99.90
5276;DHT22;2661;50.786;12.728;2023-04-24T13:41:40;15.70;99.90
5276;DHT22;2661;50.786;12.728;2023-04-24T13:44:06;15.70;99.90
5276;DHT22;2661;50.786;12.728;2023-04-24T13:46:33;15.60;99.90
5276;DHT22;2661;50.786;12.728;2023-04-24T13:48:59;15.40;99.90
5276;DHT22;2661;50.786;12.728;2023-04-24T13:51:26;15.30;99.90
5276;DHT22;2661;50.786;12.728;2023-04-24T13:53:55;15.20;99.90
5276;DHT22;2661;50.786;12.728;2023-04-24T13:56:22;15.20;99.90
5276;DHT22;2661;50.786;12.728;2023-04-24T13:58:49;15.20;99.90
5276;DHT22;2661;50.786;12.728;2023-04-24T14:01:15;15.30;99.90
5276;DHT22;2661;50.786;12.728;2023-04-24T14:03:42;15.30;99.90
5276;DHT22;2661;50.786;12.728;2023-04-24T14:06:12;15.20;99.90
5276;DHT22;2661;50.786;12.728;2023-04-24T14:08:45;15.30;99.90
5276;DHT22;2661;50.786;12.728;2023-04-24T14:11:12;15.20;99.90
5276;DHT22;2661;50.786;12.728;2023-04-24T14:13:39;15.10;99.90
5276;DHT22;2661;50.786;12.728;2023-04-24T14:16:07;15.10;99.90
5276;DHT22;2661;50.786;12.728;2023-04-24T14:18:34;15.10;99.90
5276;DHT22;2661;50.786;12.728;2023-04-24T14:21:01;15.10;99.90
5276;DHT22;2661;50.786;12.728;2023-04-24T14:23:28;15.00;99.90
5276;DHT22;2661;50.786;12.728;2023-04-24T14:25:54;14.90;99.90
5276;DHT22;2661;50.786;12.728;2023-04-24T14:28:21;14.70;99.90
5276;DHT22;2661;50.786;12.728;2023-04-24T14:30:47;14.60;99.90
5276;DHT22;2661;50.786;12.728;2023-04-24T14:33:14;14.40;99.90
5276;DHT22;2661;50.786;12.728;2023-04-24T14:35:41;14.30;99.90
5276;DHT22;2661;50.786;12.728;2023-04-24T14:38:11;14.10;99.90
5276;DHT22;2661;50.786;12.728;2023-04-24T14:40:37;14.10;99.90
5276;DHT22;2661;50.786;12.728;2023-04-24T14:43:24;14.20;99.90
5276;DHT22;2661;50.786;12.728;2023-04-24T14:45:50;14.30;99.90
5276;DHT22;2661;50.786;12.728;2023-04-24T14:48:17;14.40;99.90
5276;DHT22;2661;50.786;12.728;2023-04-24T14:50:44;14.60;99.90
5276;DHT22;2661;50.786;12.728;2023-04-24T14:53:11;14.80;99.90
5276;DHT22;2661;50.786;12.728;2023-04-24T14:55:38;14.80;99.90
5276;DHT22;2661;50.786;12.728;2023-04-24T14:58:04;14.80;99.90
5276;DHT22;2661;50.786;12.728;2023-04-24T15:00:31;14.80;99.90
5276;DHT22;2661;50.786;12.728;2023-04-24T15:02:57;14.80;99.90
5276;DHT22;2661;50.786;12.728;2023-04-24T15:05:24;14.90;99.90
5276;DHT22;2661;50.786;12.728;2023-04-24T15:07:51;14.90;99.90
5276;DHT22;2661;50.786;12.728;2023-04-24T15:10:18;14.90;99.90
5276;DHT22;2661;50.786;12.728;2023-04-24T15:12:45;15.00;99.90
5276;DHT22;2661;50.786;12.728;2023-04-24T15:15:11;14.90;99.90
5276;DHT22;2661;50.786;12.728;2023-04-24T15:17:38;14.90;99.90
5276;DHT22;2661;50.786;12.728;2023-04-24T15:20:05;14.80;99.90
5276;DHT22;2661;50.786;12.728;2023-04-24T15:22:32;14.80;99.90
5276;DHT22;2661;50.786;12.728;2023-04-24T15:24:59;14.80;99.90
5276;DHT22;2661;50.786;12.728;2023-04-24T15:27:26;14.80;99.90
5276;DHT22;2661;50.786;12.728;2023-04-24T15:29:52;14.70;99.90
5276;DHT22;2661;50.786;12.728;2023-04-24T15:32:19;14.60;99.90
5276;DHT22;2661;50.786;12.728;2023-04-24T15:34:46;14.50;99.90
5276;DHT22;2661;50.786;12.728;2023-04-24T15:37:17;14.30;99.90
5276;DHT22;2661;50.786;12.728;2023-04-24T15:39:44;14.00;99.90
5276;DHT22;2661;50.786;12.728;2023-04-24T15:42:10;13.80;99.90
5276;DHT22;2661;50.786;12.728;2023-04-24T15:44:37;13.70;99.90
5276;DHT22;2661;50.786;12.728;2023-04-24T15:47:03;13.50;99.90
5276;DHT22;2661;50.786;12.728;2023-04-24T15:49:30;13.30;99.90
5276;DHT22;2661;50.786;12.728;2023-04-24T15:51:57;13.20;99.90
5276;DHT22;2661;50.786;12.728;2023-04-24T15:54:24;13.10;99.90
5276;DHT22;2661;50.786;12.728;2023-04-24T15:56:50;13.20;99.90
5276;DHT22;2661;50.786;12.728;2023-04-24T15:59:17;13.20;99.90
5276;DHT22;2661;50.786;12.728;2023-04-24T16:01:44;13.30;99.90